Time;durP1;ratioP1;P1;durP2;ratioP2;P2;SDS_P1;SDS_P2;PMS_P1;PMS_P2;Temp;Humidity;BMP_temperature;BMP_pressure;BME280_temperature;BME280_humidity;BME280_pressure;Samples;Min_cycle;Max_cycle;Signal;HPM_P1;HPM_P2
2024/01/11 00:02:14;;;;;;;38.45;21.58;;;-0.70;64.70;;;-4.52;100.00;101653.69;4943819;28;20055;-84
2024/01/11 00:04:43;;;;;;;38.00;19.80;;;0.00;1.00;;;-4.79;100.00;101598.25;4939139;28;20051;-84
2024/01/11 00:07:11;;;;;;;34.08;21.08;;;-2.20;76.60;;;-4.80;100.00;101596.47;4937680;29;20066;-84
2024/01/11 00:09:44;;;;;;;34.72;20.90;;;-2.50;99.90;;;-4.93;100.00;101576.00;4947823;28;20043;-84
2024/01/11 00:12:12;;;;;;;36.83;21.63;;;-2.20;1.00;;;-4.89;100.00;101616.47;4954932;28;20113;-84
2024/01/11 00:14:40;;;;;;;34.85;20.40;;;-2.70;67.50;;;-4.60;100.00;101663.53;4971573;28;20046;-84
2024/01/11 00:17:07;;;;;;;35.80;20.80;;;-1.90;1.00;;;-5.05;100.00;101589.88;4930625;29;20067;-84
2024/01/11 00:19:34;;;;;;;40.95;23.33;;;-1.40;56.60;;;-5.09;100.00;101592.16;4966541;28;20070;-84
2024/01/11 00:22:02;;;;;;;41.70;22.70;;;-3.10;1.00;;;-5.13;100.00;101607.41;4970395;28;20051;-84
2024/01/11 00:24:29;;;;;;;38.50;21.55;;;-2.40;1.00;;;-5.25;100.00;101595.53;4954243;28;20043;-84
2024/01/11 00:26:56;;;;;;;38.17;21.98;;;-2.50;1.00;;;-4.88;100.00;101634.53;4950466;28;20042;-85
2024/01/11 00:29:23;;;;;;;34.25;21.02;;;-4.10;1.00;;;-5.05;100.00;101627.53;4970416;28;20117;-85
2024/01/11 00:31:50;;;;;;;37.20;23.42;;;-2.50;1.00;;;-4.92;100.00;101636.84;4968371;28;20035;-85
2024/01/11 00:34:17;;;;;;;35.28;20.48;;;-1.50;1.00;;;-5.03;100.00;101615.66;4967409;28;20042;-84
2024/01/11 00:36:45;;;;;;;33.63;21.88;;;-2.80;1.00;;;-5.44;100.00;101535.41;4956766;28;20161;-82
2024/01/11 00:39:12;;;;;;;35.38;22.25;;;-1.40;1.00;;;-4.38;100.00;101724.78;4960769;28;20055;-84
2024/01/11 00:41:40;;;;;;;31.77;21.45;;;-1.10;1.00;;;-5.11;100.00;101612.63;4976918;28;20054;-84
2024/01/11 00:44:07;;;;;;;37.33;21.33;;;-1.10;99.90;;;-5.17;100.00;101615.72;4976482;28;20113;-84
2024/01/11 00:46:38;;;;;;;41.33;22.15;;;-1.10;99.90;;;-4.82;100.00;101652.00;4938772;29;20067;-84
2024/01/11 00:49:05;;;;;;;41.17;22.38;;;-1.00;99.90;;;-4.75;100.00;101659.25;4966589;28;20111;-84
2024/01/11 00:51:32;;;;;;;42.58;24.13;;;-1.90;99.90;;;-5.20;100.00;101619.75;4949613;28;20043;-84
2024/01/11 00:53:59;;;;;;;44.08;24.00;;;-2.30;99.90;;;-5.13;100.00;101675.81;4957439;28;20118;-83
2024/01/11 00:56:26;;;;;;;35.95;22.00;;;-2.90;99.90;;;-5.56;100.00;101597.09;4949709;28;20447;-84
2024/01/11 00:58:54;;;;;;;42.50;22.98;;;-2.20;99.90;;;-5.42;100.00;101659.53;4957522;28;20122;-83
2024/01/11 01:01:21;;;;;;;38.42;21.27;;;-2.50;1.00;;;-5.21;100.00;101693.31;4957681;28;20043;-83
2024/01/11 01:03:48;;;;;;;33.47;21.17;;;-3.40;1.00;;;-5.87;100.00;101585.81;4940933;28;20516;-83
2024/01/11 01:06:15;;;;;;;41.40;22.25;;;-1.50;1.00;;;-5.42;100.00;101650.13;4954541;28;20242;-84
2024/01/11 01:08:43;;;;;;;48.45;26.00;;;-3.60;1.00;;;-5.23;100.00;101676.03;4952832;28;20134;-85
2024/01/11 01:11:10;;;;;;;38.72;22.73;;;-3.20;44.00;;;-5.73;100.00;101593.50;4960248;28;20065;-84
2024/01/11 01:13:37;;;;;;;43.75;25.33;;;-2.50;1.00;;;-6.06;100.00;101550.50;4957795;28;20093;-85
2024/01/11 01:16:05;;;;;;;42.72;23.98;;;-3.30;87.80;;;-5.00;100.00;101739.94;4977592;28;20055;-84
2024/01/11 01:18:32;;;;;;;42.85;24.63;;;-2.90;10.80;;;-5.45;100.00;101688.41;4966370;28;20046;-84
2024/01/11 01:20:59;;;;;;;39.70;23.27;;;-2.00;99.90;;;-5.94;100.00;101641.75;4977309;28;20601;-84
2024/01/11 01:23:26;;;;;;;39.95;22.42;;;-2.90;99.90;;;-5.42;100.00;101692.88;4960577;28;20162;-83
2024/01/11 01:25:53;;;;;;;42.58;24.63;;;-3.40;1.00;;;-5.13;100.00;101735.72;4960898;28;20434;-84
2024/01/11 01:28:21;;;;;;;42.00;24.13;;;-2.90;1.00;;;-5.84;100.00;101610.78;4958047;28;20046;-83
2024/01/11 01:30:48;;;;;;;38.55;22.50;;;-1.80;1.00;;;-5.87;100.00;101625.94;4958308;28;20043;-84
2024/01/11 01:33:15;;;;;;;44.00;24.27;;;-3.00;99.90;;;-5.19;100.00;101713.94;4968952;28;20155;-83
2024/01/11 01:35:43;;;;;;;43.00;25.15;;;-5.20;1.00;;;-5.79;100.00;101632.47;4953663;28;20047;-81
2024/01/11 01:38:13;;;;;;;37.65;21.75;;;-4.30;1.00;;;-5.22;100.00;101744.53;4923436;28;20147;-82
2024/01/11 01:40:40;;;;;;;39.35;22.38;;;-3.20;1.00;;;-5.30;100.00;101693.63;4932169;29;20185;-83
2024/01/11 01:43:12;;;;;;;44.95;22.45;;;-2.70;1.00;;;-5.60;100.00;101662.72;4957253;28;20047;-83
2024/01/11 01:45:41;;;;;;;36.17;20.80;;;-4.60;99.90;;;-5.34;100.00;101701.03;4951527;29;20035;-82
2024/01/11 01:48:09;;;;;;;46.00;22.83;;;-3.20;99.90;;;-5.96;100.00;101635.63;4942230;28;20062;-83
2024/01/11 01:50:37;;;;;;;37.17;23.58;;;-3.10;1.00;;;-5.65;100.00;101678.59;4959758;29;20070;-83
2024/01/11 01:53:06;;;;;;;42.88;24.30;;;-3.10;1.00;;;-5.56;100.00;101699.69;4937035;28;20542;-82
2024/01/11 01:55:36;;;;;;;42.78;24.40;;;-2.50;1.00;;;-6.22;100.00;101630.66;4929458;28;20057;-83
2024/01/11 01:58:04;;;;;;;40.95;21.05;;;-3.60;51.50;;;-6.24;100.00;101627.09;4945772;28;20051;-83
2024/01/11 02:00:31;;;;;;;45.97;23.58;;;-3.60;99.90;;;-5.35;100.00;101766.84;4939622;29;20804;-81
2024/01/11 02:02:58;;;;;;;43.22;24.95;;;-3.10;32.40;;;-5.49;100.00;101750.59;4937850;28;20051;-84
2024/01/11 02:05:26;;;;;;;38.10;23.50;;;-4.40;1.00;;;-5.77;100.00;101719.75;4959174;28;20066;-83
2024/01/11 02:07:57;;;;;;;43.78;25.45;;;-3.80;70.90;;;-5.39;100.00;101764.00;4953233;28;20042;-81
2024/01/11 02:10:25;;;;;;;40.80;23.42;;;-2.60;94.20;;;-6.00;100.00;101668.75;4964537;28;20047;-82
2024/01/11 02:12:52;;;;;;;44.08;24.27;;;-3.80;99.90;;;-6.25;100.00;101645.78;4956127;28;20043;-82
2024/01/11 02:15:19;;;;;;;36.47;22.35;;;-2.70;1.00;;;-5.75;100.00;101742.09;4963515;28;20207;-84
2024/01/11 02:17:46;;;;;;;37.45;21.98;;;-3.20;1.00;;;-6.40;100.00;101612.41;4962743;28;20055;-83
2024/01/11 02:20:14;;;;;;;46.80;26.45;;;-5.40;99.90;;;-6.43;100.00;101587.47;4962055;28;20606;-83
2024/01/11 02:22:47;;;;;;;45.80;24.25;;;-2.40;19.10;;;-5.92;100.00;101646.19;4959857;28;20067;-85
2024/01/11 02:25:14;;;;;;;41.65;24.00;;;-3.80;1.00;;;-5.09;100.00;101770.19;4957780;28;20058;-81
2024/01/11 02:27:49;;;;;;;37.10;21.45;;;-2.30;99.90;;;-5.14;100.00;101751.06;4956931;28;20051;-83
2024/01/11 02:30:17;;;;;;;38.08;22.45;;;-3.20;99.90;;;-5.04;100.00;101758.50;4961141;28;20051;-81
2024/01/11 02:32:48;;;;;;;40.63;23.65;;;-2.80;99.90;;;-4.99;100.00;101766.50;4977840;28;20046;-82
2024/01/11 02:35:16;;;;;;;38.85;23.55;;;-3.20;41.50;;;-5.12;100.00;101731.50;4969995;28;20047;-84
2024/01/11 02:37:45;;;;;;;41.28;23.40;;;-2.60;75.50;;;-5.76;100.00;101612.13;4962553;28;20061;-84
2024/01/11 02:40:14;;;;;;;46.90;25.95;;;-2.20;99.90;;;-5.41;100.00;101685.25;4946805;28;20412;-83
2024/01/11 02:42:42;;;;;;;43.17;22.90;;;-2.90;99.90;;;-5.02;100.00;101720.97;4959498;28;20055;-85
2024/01/11 02:45:12;;;;;;;44.50;24.23;;;-2.90;99.90;;;-5.86;100.00;101586.69;4970579;28;20061;-83
2024/01/11 02:47:39;;;;;;;38.90;24.08;;;-1.80;99.90;;;-5.55;100.00;101666.44;4974248;28;20043;-85
2024/01/11 02:50:08;;;;;;;39.35;22.88;;;-1.20;99.90;;;-5.23;100.00;101688.88;4961546;28;20122;-86
2024/01/11 02:52:36;;;;;;;39.90;23.75;;;-3.80;99.90;;;-5.05;100.00;101713.09;4963433;28;20046;-85
2024/01/11 02:55:03;;;;;;;40.72;23.65;;;-2.90;99.90;;;-4.92;100.00;101744.66;4971494;28;20050;-83
2024/01/11 02:57:30;;;;;;;40.03;23.75;;;-2.50;99.90;;;-5.47;100.00;101625.88;4964156;28;20058;-85
2024/01/11 02:59:57;;;;;;;37.75;22.98;;;-1.40;99.90;;;-5.58;100.00;101607.28;4966019;28;20058;-83
2024/01/11 03:02:24;;;;;;;41.97;24.55;;;-1.90;1.00;;;-4.93;100.00;101715.53;4956045;28;20541;-84
2024/01/11 03:04:51;;;;;;;48.22;23.83;;;-2.60;99.90;;;-4.98;100.00;101716.94;4967100;28;20043;-85
2024/01/11 03:07:18;;;;;;;39.30;22.65;;;-1.20;34.40;;;-5.13;100.00;101680.97;4970450;28;20051;-85
2024/01/11 03:09:45;;;;;;;42.50;23.77;;;-2.70;53.40;;;-5.21;100.00;101674.44;4940286;28;20050;-85
2024/01/11 03:12:12;;;;;;;36.47;22.23;;;-2.40;1.00;;;-5.21;100.00;101664.19;4955556;28;20050;-84
2024/01/11 03:14:44;;;;;;;43.65;24.70;;;-1.10;1.00;;;-5.11;100.00;101674.22;4969128;28;20494;-84
2024/01/11 03:17:11;;;;;;;41.47;25.70;;;-1.60;1.00;;;-5.21;100.00;101665.09;4957746;28;20577;-85
2024/01/11 03:19:41;;;;;;;45.13;25.55;;;-3.60;1.00;;;-4.74;100.00;101756.06;4954811;28;20126;-85
2024/01/11 03:22:08;;;;;;;;;;;-3.20;99.90;;;-5.30;100.00;101664.50;4939081;28;20051;-85
2024/01/11 03:24:39;;;;;;;39.67;22.80;;;;;;;-4.69;100.00;101751.19;4962927;28;19933;-85
2024/01/11 03:27:06;;;;;;;39.72;23.27;;;-2.80;46.10;;;-4.84;100.00;101721.22;4980025;28;20047;-84
2024/01/11 03:29:34;;;;;;;40.55;23.70;;;-2.20;1.00;;;-5.10;100.00;101670.88;4968048;28;20046;-81
2024/01/11 03:32:02;;;;;;;40.33;22.98;;;-3.30;99.90;;;-5.08;100.00;101689.81;4962493;28;20085;-83
2024/01/11 03:34:30;;;;;;;35.95;21.10;;;-3.70;99.90;;;-4.87;100.00;101731.31;4963014;28;20066;-82
2024/01/11 03:36:57;;;;;;;38.80;22.55;;;-2.40;31.80;;;-4.96;100.00;101717.03;4962903;28;20078;-84
2024/01/11 03:39:25;;;;;;;43.20;23.25;;;-3.00;1.00;;;-5.72;100.00;101600.41;4978671;28;20054;-84
2024/01/11 03:41:53;;;;;;;39.75;23.48;;;-3.70;99.90;;;-5.51;100.00;101633.28;4963376;28;20051;-81
2024/01/11 03:44:20;;;;;;;41.33;24.38;;;-3.10;99.90;;;-5.04;100.00;101702.03;4962262;28;20125;-84
2024/01/11 03:46:48;;;;;;;40.83;24.13;;;-2.00;99.90;;;-4.90;100.00;101700.31;4962570;28;20050;-82
2024/01/11 03:49:15;;;;;;;41.22;24.20;;;-3.10;1.00;;;-5.07;100.00;101685.56;4961297;28;20114;-84
2024/01/11 03:51:42;;;;;;;42.15;23.15;;;-2.90;1.00;;;-5.60;100.00;101607.97;4961926;28;20066;-83
2024/01/11 03:54:10;;;;;;;38.80;24.98;;;-1.00;99.90;;;-4.97;100.00;101707.56;4977577;28;20047;-81
2024/01/11 03:56:41;;;;;;;42.10;23.02;;;-1.80;99.90;;;-4.72;100.00;101735.63;4961226;28;20039;-84
2024/01/11 03:59:10;;;;;;;38.35;24.00;;;-2.40;99.90;;;-5.49;100.00;101622.34;4978660;28;20106;-82
2024/01/11 04:01:43;;;;;;;44.95;23.33;;;-3.10;99.90;;;-5.39;100.00;101613.53;4963425;28;20046;-82
2024/01/11 04:04:11;;;;;;;41.03;24.83;;;-1.90;77.40;;;-5.34;100.00;101632.63;4981793;28;20086;-82
2024/01/11 04:06:38;;;;;;;39.90;23.05;;;-3.10;91.40;;;-5.61;100.00;101595.94;4980292;28;20402;-82
2024/01/11 04:09:05;;;;;;;38.40;21.92;;;-2.50;99.90;;;-5.61;100.00;101613.88;4962513;28;20051;-83
2024/01/11 04:11:32;;;;;;;44.42;24.10;;;-2.00;1.00;;;-5.05;100.00;101695.13;4961777;28;20101;-81
2024/01/11 04:13:59;;;;;;;38.40;22.38;;;-2.90;91.80;;;-4.85;100.00;101742.56;4961441;28;20058;-82
2024/01/11 04:16:27;;;;;;;42.25;22.65;;;-2.00;99.90;;;-4.92;100.00;101719.84;4961203;28;20082;-81
2024/01/11 04:18:54;;;;;;;38.65;22.52;;;-3.30;90.30;;;-5.04;100.00;101712.31;4945284;28;20051;-83
2024/01/11 04:21:30;;;;;;;34.67;21.63;;;-2.90;99.90;;;-5.89;100.00;101589.06;4962052;28;20069;-82
2024/01/11 04:23:57;;;;;;;42.45;23.85;;;-2.70;99.90;;;-5.38;100.00;101674.31;4946222;29;20449;-82
2024/01/11 04:26:24;;;;;;;38.35;22.25;;;-3.60;99.90;;;-5.29;100.00;101699.63;4972033;28;20447;-82
2024/01/11 04:28:53;;;;;;;41.58;24.42;;;-3.20;1.10;;;-5.50;100.00;101678.66;4965306;28;20059;-82
2024/01/11 04:31:24;;;;;;;41.15;23.73;;;-2.40;51.50;;;-5.85;100.00;101609.88;4974345;28;20739;-82
2024/01/11 04:33:51;;;;;;;41.42;22.48;;;-3.00;99.90;;;-5.56;100.00;101718.53;4972473;28;20055;-82
2024/01/11 04:36:18;;;;;;;45.50;23.42;;;-3.70;27.70;;;-5.57;100.00;101719.31;4966673;28;21546;-84
2024/01/11 04:38:45;;;;;;;35.60;22.27;;;-3.20;99.90;;;-6.21;100.00;101617.03;4960263;28;20070;-81
2024/01/11 04:41:14;;;;;;;44.22;22.60;;;-4.10;19.00;;;-5.39;100.00;101722.94;4942774;29;20082;-84
2024/01/11 04:43:45;;;;;;;39.35;22.40;;;-3.00;1.00;;;-6.01;100.00;101632.81;4963717;28;20055;-82
2024/01/11 04:46:23;;;;;;;41.95;22.85;;;-3.70;99.90;;;-5.63;100.00;101713.78;4958535;28;20051;-82
2024/01/11 04:48:50;;;;;;;41.95;23.63;;;-3.90;99.90;;;-5.56;100.00;101723.66;4955461;28;20133;-80
2024/01/11 04:51:18;;;;;;;43.28;23.35;;;-3.90;90.00;;;-5.62;100.00;101741.25;4959938;28;20054;-81
2024/01/11 04:53:46;;;;;;;42.67;23.35;;;-3.90;99.90;;;-6.39;100.00;101610.75;4955603;28;20078;-78
2024/01/11 04:56:16;;;;;;;40.33;23.10;;;-4.30;1.00;;;-6.34;100.00;101658.88;4966927;28;20058;-78
2024/01/11 04:58:45;;;;;;;41.97;24.05;;;-2.50;2.50;;;-6.08;100.00;101698.16;4956060;28;20055;-77
2024/01/11 05:01:17;;;;;;;38.92;22.58;;;-3.40;1.00;;;-5.81;100.00;101728.91;4955295;28;20047;-79
2024/01/11 05:03:46;;;;;;;42.58;21.67;;;-2.50;1.00;;;-5.76;100.00;101727.50;4972697;28;20047;-78
2024/01/11 05:06:21;;;;;;;40.75;23.20;;;-2.90;99.90;;;-6.62;100.00;101631.50;4967903;28;20036;-78
2024/01/11 05:08:54;;;;;;;43.60;22.60;;;-4.40;99.90;;;-6.14;100.00;101731.94;4966560;28;20117;-79
2024/01/11 05:11:26;;;;;;;45.63;23.83;;;-3.50;1.00;;;-6.04;100.00;101748.81;4947407;28;20043;-79
2024/01/11 05:13:53;;;;;;;41.50;23.13;;;-3.00;99.90;;;-6.10;100.00;101750.97;4964145;28;20150;-79
2024/01/11 05:16:26;;;;;;;40.50;21.85;;;-2.60;1.00;;;-6.01;100.00;101766.94;4946571;28;20502;-79
2024/01/11 05:18:55;;;;;;;38.55;23.80;;;;;;;-5.98;100.00;101773.94;4955289;28;20458;-77
2024/01/11 05:21:23;;;;;;;40.85;22.92;;;-2.90;1.00;;;-6.20;100.00;101733.22;4970461;28;20049;-78
2024/01/11 05:23:51;;;;;;;41.13;24.08;;;-3.90;99.80;;;-6.13;100.00;101777.28;4943805;28;20051;-81
2024/01/11 05:26:19;;;;;;;43.67;23.80;;;-4.00;1.00;;;-6.25;100.00;101742.28;4962004;28;20450;-76
2024/01/11 05:28:46;;;;;;;44.63;22.60;;;-4.10;1.00;;;-6.18;100.00;101772.63;4952217;28;20123;-77
2024/01/11 05:31:15;;;;;;;40.75;23.25;;;-3.10;1.00;;;-6.45;100.00;101757.22;4968074;28;20065;-76
2024/01/11 05:33:46;;;;;;;29.75;17.05;;;-4.20;1.00;;;-6.50;100.00;101753.44;4952280;28;20061;-76
2024/01/11 05:36:14;;;;;;;37.92;22.70;;;-4.20;1.00;;;-6.46;100.00;101764.00;4966421;28;20042;-76
2024/01/11 05:38:41;;;;;;;42.63;22.60;;;-5.20;99.90;;;-6.46;100.00;101745.19;4968504;28;20054;-76
2024/01/11 05:41:08;;;;;;;50.42;25.48;;;-3.20;1.00;;;-6.17;100.00;101761.59;4958759;28;20043;-77
2024/01/11 05:43:39;;;;;;;41.10;26.25;;;-3.90;30.90;;;-6.08;100.00;101753.66;4963059;28;20050;-80
2024/01/11 05:46:07;;;;;;;;;;;;;;;-6.10;100.00;101778.28;4953501;28;20621;-80
2024/01/11 05:48:34;;;;;;;41.65;24.63;;;;;;;-6.05;100.00;101774.38;4978828;28;19926;-79
2024/01/11 05:51:01;;;;;;;37.20;21.83;;;-4.00;1.00;;;-6.04;100.00;101768.44;4952863;28;20055;-79
2024/01/11 05:53:29;;;;;;;40.17;23.23;;;-3.60;99.90;;;-6.18;100.00;101781.22;4960737;28;20054;-77
2024/01/11 05:55:56;;;;;;;39.83;22.70;;;-5.10;1.00;;;-6.29;100.00;101779.59;4965374;28;20071;-80
2024/01/11 05:58:23;;;;;;;43.65;20.70;;;-2.10;1.00;;;-6.38;100.00;101751.69;4949380;28;20097;-77
2024/01/11 06:00:50;;;;;;;42.60;23.55;;;-4.30;99.90;;;-6.30;100.00;101772.72;4963964;28;20058;-79
2024/01/11 06:03:17;;;;;;;41.08;21.98;;;-3.90;1.00;;;-6.20;100.00;101793.06;4958255;28;20078;-76
2024/01/11 06:05:45;;;;;;;42.05;23.60;;;-5.40;99.90;;;-6.57;100.00;101723.94;4959142;28;20071;-76
2024/01/11 06:08:12;;;;;;;39.17;23.45;;;-3.90;99.90;;;-6.50;100.00;101758.56;4959701;28;20089;-77
2024/01/11 06:10:40;;;;;;;37.55;23.77;;;-5.10;99.90;;;-6.45;100.00;101788.81;4966458;28;20042;-76
2024/01/11 06:13:07;;;;;;;40.50;22.52;;;-5.10;1.00;;;-6.74;100.00;101728.81;4979305;28;20074;-75
2024/01/11 06:15:33;;;;;;;40.55;22.40;;;-4.20;99.90;;;-7.02;100.00;101697.91;4954086;28;20141;-78
2024/01/11 06:18:01;;;;;;;38.13;22.15;;;;;;;-6.51;100.00;101790.06;4976767;28;20115;-78
2024/01/11 06:20:29;;;;;;;42.40;21.30;;;;;;;-6.61;100.00;101806.47;4959126;28;20047;-78
2024/01/11 06:22:57;;;;;;;44.45;22.20;;;;;;;-6.46;100.00;101797.28;4967238;28;20049;-79
2024/01/11 06:25:24;;;;;;;35.45;19.42;;;-2.60;1.00;;;-6.59;100.00;101744.34;4970515;28;20435;-79
2024/01/11 06:27:51;;;;;;;41.70;22.35;;;-5.00;99.90;;;-6.28;100.00;101782.28;4947709;28;20102;-79
2024/01/11 06:30:17;;;;;;;40.47;22.33;;;-4.20;99.90;;;-6.29;100.00;101754.91;4942954;28;20051;-79
2024/01/11 06:32:45;;;;;;;41.65;22.75;;;-3.90;27.40;;;-6.31;100.00;101735.06;4951239;28;20639;-81
2024/01/11 06:35:12;;;;;;;36.17;21.45;;;-4.30;1.00;;;-6.03;100.00;101776.22;4953792;28;20058;-80
2024/01/11 06:37:39;;;;;;;44.67;22.77;;;-3.20;99.90;;;-5.93;100.00;101782.84;4954540;28;20125;-77
2024/01/11 06:40:08;;;;;;;43.53;23.45;;;-5.50;99.90;;;-5.90;100.00;101775.34;4969305;28;20074;-80
2024/01/11 06:42:35;;;;;;;37.22;22.63;;;-3.10;99.90;;;-5.93;100.00;101777.72;4935449;29;20047;-78
2024/01/11 06:45:03;;;;;;;35.60;21.88;;;-3.90;1.00;;;-5.72;100.00;101801.28;4958578;28;20522;-78
2024/01/11 06:47:30;;;;;;;43.38;23.23;;;-3.60;99.90;;;-6.28;100.00;101741.28;4978842;28;20051;-79
2024/01/11 06:49:57;;;;;;;39.88;22.05;;;-3.90;99.90;;;-6.19;100.00;101788.78;4946712;28;20042;-78
2024/01/11 06:52:25;;;;;;;40.28;22.48;;;-3.20;5.30;;;-6.37;100.00;101789.34;4946087;28;20039;-78
2024/01/11 06:54:52;;;;;;;37.85;20.85;;;-4.30;99.90;;;-6.37;100.00;101785.91;4954075;28;20452;-79
2024/01/11 06:57:19;;;;;;;44.28;21.70;;;-4.40;97.70;;;-6.08;100.00;101827.97;4958759;28;20050;-78
2024/01/11 06:59:46;;;;;;;40.80;23.02;;;-4.00;1.00;;;-6.38;100.00;101782.44;4950236;28;20094;-79
2024/01/11 07:02:13;;;;;;;54.45;28.17;;;-3.30;16.70;;;-6.45;100.00;101773.44;4966259;28;20055;-79
2024/01/11 07:04:44;;;;;;;50.78;29.60;;;-2.90;1.00;;;-6.24;100.00;101798.75;4940061;28;20281;-78
2024/01/11 07:07:11;;;;;;;49.20;26.45;;;-4.30;1.00;;;-6.19;100.00;101817.88;4957244;28;20049;-77
2024/01/11 07:09:39;;;;;;;55.47;29.17;;;-3.50;14.60;;;-6.09;100.00;101839.91;4943373;28;20140;-78
2024/01/11 07:12:06;;;;;;;99.25;40.95;;;-3.80;1.00;;;-6.38;100.00;101790.13;4940959;28;20054;-79
2024/01/11 07:14:33;;;;;;;128.35;46.47;;;-4.10;1.00;;;-5.85;100.00;101866.25;4951472;28;20037;-79
2024/01/11 07:17:00;;;;;;;131.25;52.60;;;-3.30;99.90;;;-6.09;100.00;101819.38;4951499;28;20477;-79
2024/01/11 07:19:27;;;;;;;108.90;47.28;;;-4.20;1.00;;;-6.01;100.00;101854.09;4967453;28;20089;-78
2024/01/11 07:21:55;;;;;;;95.45;41.70;;;-4.90;1.00;;;-5.90;100.00;101864.16;4943251;28;20054;-79
2024/01/11 07:24:21;;;;;;;84.38;40.80;;;-4.30;1.00;;;-6.03;100.00;101860.78;4935997;28;20042;-79
2024/01/11 07:26:48;;;;;;;72.00;34.17;;;-3.90;99.90;;;-6.02;100.00;101860.00;4958230;28;20047;-78
2024/01/11 07:29:16;;;;;;;52.65;30.00;;;-3.60;48.70;;;-6.04;100.00;101866.72;4966928;28;20042;-78
2024/01/11 07:31:43;;;;;;;64.57;32.40;;;-3.90;1.00;;;-6.03;100.00;101868.47;4951186;28;20484;-77
2024/01/11 07:34:10;;;;;;;62.00;32.70;;;-3.10;1.00;;;-6.04;100.00;101870.97;4949111;28;20047;-79
2024/01/11 07:36:38;;;;;;;57.53;30.00;;;-4.40;1.00;;;-6.20;100.00;101864.78;4974820;28;20502;-79
2024/01/11 07:39:05;;;;;;;53.88;29.08;;;-4.40;78.50;;;-6.45;100.00;101823.81;4950197;28;20425;-78
2024/01/11 07:41:32;;;;;;;55.58;30.65;;;-6.00;99.90;;;-6.41;100.00;101859.94;4959577;28;20039;-78
2024/01/11 07:44:00;;;;;;;60.70;28.80;;;-4.20;99.90;;;-6.30;100.00;101891.47;4950521;28;20718;-76
2024/01/11 07:46:27;;;;;;;59.63;29.48;;;-4.30;99.90;;;-6.38;100.00;101905.41;4958258;28;20118;-79
2024/01/11 07:49:05;;;;;;;50.17;26.35;;;-4.60;49.30;;;-6.34;100.00;101909.94;4966706;28;20057;-79
2024/01/11 07:51:36;;;;;;;55.78;27.25;;;-4.90;99.90;;;-6.43;100.00;101891.38;4962456;28;20046;-78
2024/01/11 07:54:04;;;;;;;47.65;25.90;;;-3.70;1.00;;;-6.51;100.00;101887.38;4963044;28;20047;-78
2024/01/11 07:56:31;;;;;;;45.85;25.00;;;-3.00;1.00;;;-6.64;100.00;101860.91;4949768;28;20069;-77
2024/01/11 07:58:59;;;;;;;47.38;25.27;;;-2.50;1.00;;;-7.05;100.00;101788.13;4950331;28;20063;-77
2024/01/11 08:01:26;;;;;;;51.30;25.70;;;-4.50;99.90;;;-6.38;100.00;101874.66;4963235;28;20048;-77
2024/01/11 08:03:53;;;;;;;47.80;24.88;;;-3.30;1.00;;;-6.49;100.00;101855.09;4946791;28;20062;-77
2024/01/11 08:06:20;;;;;;;47.67;26.77;;;-3.50;1.00;;;-6.49;100.00;101879.03;4962794;28;20035;-78
2024/01/11 08:08:51;;;;;;;45.35;26.70;;;-4.70;62.50;;;-6.45;100.00;101900.63;4947092;28;20047;-77
2024/01/11 08:11:19;;;;;;;48.47;28.77;;;-3.40;27.70;;;-6.46;100.00;101892.06;4942076;28;20046;-78
2024/01/11 08:13:47;;;;;;;50.53;28.17;;;-5.10;99.90;;;-6.38;100.00;101887.47;4961184;28;20098;-77
2024/01/11 08:16:17;;;;;;;47.25;26.00;;;-4.00;29.00;;;-6.31;100.00;101883.66;4956149;28;20051;-77
2024/01/11 08:18:45;;;;;;;50.13;27.15;;;-4.90;99.90;;;-6.32;100.00;101882.78;4950408;28;20059;-76
2024/01/11 08:21:14;;;;;;;58.70;26.98;;;-3.70;93.60;;;-6.06;100.00;101905.84;4964263;28;20054;-77
2024/01/11 08:23:45;;;;;;;49.88;26.40;;;-3.30;99.90;;;-6.14;100.00;101883.13;4959688;28;20066;-77
2024/01/11 08:26:14;;;;;;;52.22;30.48;;;-3.90;1.00;;;-6.01;100.00;101891.66;4933333;28;20162;-77
2024/01/11 08:28:42;;;;;;;45.55;26.20;;;-4.10;99.90;;;-5.89;100.00;101905.28;4944103;28;20094;-77
2024/01/11 08:31:09;;;;;;;47.58;26.63;;;-3.40;1.00;;;-5.96;100.00;101891.97;4959911;28;20560;-78
2024/01/11 08:33:37;;;;;;;47.95;25.98;;;-2.50;1.00;;;-5.92;100.00;101914.44;4965886;28;20043;-78
2024/01/11 08:36:06;;;;;;;47.47;25.80;;;-3.50;99.90;;;-6.21;100.00;101886.06;4949986;28;20134;-77
2024/01/11 08:38:37;;;;;;;36.45;20.45;;;-4.30;1.00;;;-5.96;100.00;101889.41;4924843;28;20106;-79
2024/01/11 08:41:04;;;;;;;46.22;26.42;;;-3.80;99.90;;;-5.96;100.00;101890.25;4944227;28;20090;-78
2024/01/11 08:43:31;;;;;;;45.03;24.77;;;-3.90;1.00;;;-5.95;100.00;101886.91;4966554;28;20054;-76
2024/01/11 08:45:59;;;;;;;46.13;24.00;;;-4.10;99.90;;;-5.85;100.00;101885.88;4967244;28;20051;-76
2024/01/11 08:48:26;;;;;;;43.25;25.20;;;-3.20;99.90;;;-5.64;100.00;101924.00;4952391;28;20441;-77
2024/01/11 08:50:54;;;;;;;47.95;24.02;;;-4.10;99.90;;;-5.62;100.00;101902.81;4938583;28;20908;-77
2024/01/11 08:53:21;;;;;;;44.20;26.15;;;-2.50;1.00;;;-5.66;100.00;101872.59;4952681;28;20047;-77
2024/01/11 08:55:53;;;;;;;45.47;25.00;;;-2.60;99.90;;;-5.66;100.00;101862.34;4947156;28;20401;-79
2024/01/11 08:58:20;;;;;;;48.83;27.55;;;-3.20;1.00;;;-5.88;100.00;101819.00;4942518;28;20446;-77
2024/01/11 09:00:47;;;;;;;49.55;28.10;;;-2.40;1.00;;;-5.15;100.00;101924.69;4948291;28;20078;-76
2024/01/11 09:03:16;;;;;;;48.60;28.92;;;-2.50;99.90;;;-5.09;100.00;101931.91;4941961;28;20059;-78
2024/01/11 09:05:43;;;;;;;49.75;26.70;;;-3.20;99.90;;;-5.03;100.00;101908.31;4960929;28;20752;-75
2024/01/11 09:08:11;;;;;;;46.28;26.83;;;-2.90;1.00;;;-4.86;100.00;101937.63;4967163;28;20058;-76
2024/01/11 09:10:38;;;;;;;50.22;29.38;;;-3.00;98.00;;;-4.91;100.00;101909.09;4954618;28;20525;-75
2024/01/11 09:13:05;;;;;;;52.55;28.00;;;-2.50;1.00;;;-4.85;100.00;101909.47;4957565;28;20075;-76
2024/01/11 09:15:32;;;;;;;52.22;28.35;;;-3.60;94.40;;;-4.77;100.00;101914.19;4956887;28;20430;-75
2024/01/11 09:18:02;;;;;;;54.55;29.27;;;-3.30;98.50;;;-4.78;100.00;101892.78;4964908;28;20169;-76
2024/01/11 09:20:30;;;;;;;50.20;29.73;;;-3.00;1.00;;;-4.75;100.00;101887.84;4966353;28;20051;-75
2024/01/11 09:22:57;;;;;;;52.15;27.20;;;-2.50;1.00;;;-4.40;100.00;101926.81;4948671;28;20047;-76
2024/01/11 09:25:26;;;;;;;51.15;28.38;;;-2.60;71.30;;;-4.97;100.00;101835.94;4965386;28;20087;-77
2024/01/11 09:27:53;;;;;;;42.70;23.33;;;-2.50;40.00;;;-4.42;100.00;101900.13;4964179;28;20039;-77
2024/01/11 09:30:23;;;;;;;48.90;29.55;;;-2.30;99.90;;;-4.52;100.00;101864.38;4965844;28;20274;-76
2024/01/11 09:32:50;;;;;;;49.63;28.20;;;-2.80;99.90;;;-4.19;100.00;101913.50;4965401;28;20098;-79
2024/01/11 09:35:17;;;;;;;50.22;28.30;;;-1.90;99.90;;;-4.37;100.00;101885.88;4972098;28;20074;-79
2024/01/11 09:37:46;;;;;;;53.20;29.08;;;-3.00;99.90;;;-4.44;100.00;101865.75;4949468;28;20051;-80
2024/01/11 09:40:14;;;;;;;43.70;27.17;;;-2.30;1.00;;;-4.18;100.00;101902.41;4952087;28;20474;-78
2024/01/11 09:42:41;;;;;;;48.33;25.60;;;-2.30;99.90;;;-4.13;100.00;101908.75;4963414;28;20058;-77
2024/01/11 09:45:16;;;;;;;50.92;28.25;;;-2.10;1.00;;;-3.96;100.00;101929.44;4965063;28;20047;-80
2024/01/11 09:47:48;;;;;;;49.13;28.48;;;-1.10;1.00;;;-4.43;100.00;101842.69;4959605;28;20496;-78
2024/01/11 09:50:19;;;;;;;50.00;29.90;;;-2.50;1.00;;;-3.87;100.00;101924.84;4952637;28;20090;-79
2024/01/11 09:52:50;;;;;;;51.45;29.50;;;-2.30;1.00;;;-3.95;100.00;101893.53;4949942;28;20047;-78
2024/01/11 09:55:18;;;;;;;52.67;28.73;;;-0.20;35.60;;;-3.97;100.00;101873.69;4968892;28;20050;-78
2024/01/11 09:57:56;;;;;;;45.72;27.45;;;-0.10;99.90;;;-3.60;100.00;101925.59;4959237;28;20062;-79
2024/01/11 10:00:24;;;;;;;50.83;27.83;;;-1.40;99.90;;;-3.73;100.00;101902.53;4965672;28;20825;-78
2024/01/11 10:02:54;;;;;;;50.10;30.23;;;-1.20;1.00;;;-3.60;100.00;101912.72;4957700;28;20047;-77